createdAt,value
2023-05-21T00:00:48.737Z,17.10
2023-05-21T00:02:53.127Z,17.10
2023-05-21T00:04:56.200Z,17.10
2023-05-21T00:06:59.523Z,17.10
2023-05-21T00:09:03.310Z,17.10
2023-05-21T00:11:06.588Z,17.10
2023-05-21T00:13:10.488Z,17.10
2023-05-21T00:15:13.781Z,17.10
2023-05-21T00:17:17.930Z,17.10
2023-05-21T00:19:22.794Z,17.10
2023-05-21T00:21:26.275Z,17.10
2023-05-21T00:23:32.642Z,17.10
2023-05-21T00:25:35.850Z,17.10
2023-05-21T00:27:41.157Z,17.00
2023-05-21T00:29:46.244Z,17.10
2023-05-21T00:31:50.340Z,17.00
2023-05-21T00:33:53.379Z,17.00
2023-05-21T00:35:57.830Z,17.00
2023-05-21T00:38:03.310Z,16.80
2023-05-21T00:40:09.282Z,17.00
2023-05-21T00:42:12.350Z,16.90
2023-05-21T00:44:16.801Z,16.90
2023-05-21T00:46:23.562Z,16.90
2023-05-21T00:48:26.848Z,16.90
2023-05-21T00:50:34.110Z,16.90
2023-05-21T00:52:41.745Z,16.90
2023-05-21T00:54:47.101Z,16.80
2023-05-21T00:56:52.992Z,16.80
2023-05-21T00:58:58.335Z,16.80
2023-05-21T01:01:03.586Z,16.80
2023-05-21T01:03:07.498Z,16.80
2023-05-21T01:05:15.660Z,16.80
2023-05-21T01:07:18.614Z,16.80
2023-05-21T01:09:23.228Z,16.80
2023-05-21T01:11:38.044Z,16.80
2023-05-21T01:13:42.529Z,16.80
2023-05-21T01:15:47.226Z,16.90
2023-05-21T01:17:52.232Z,16.90
2023-05-21T01:19:57.607Z,16.90
2023-05-21T01:22:04.785Z,16.90
2023-05-21T01:24:11.878Z,16.90
2023-05-21T01:26:15.764Z,16.80
2023-05-21T01:28:18.829Z,16.80
2023-05-21T01:30:24.184Z,16.90
2023-05-21T01:32:33.989Z,16.90
2023-05-21T01:34:43.107Z,16.90
2023-05-21T01:36:55.007Z,16.80
2023-05-21T01:39:03.760Z,16.80
2023-05-21T01:41:14.841Z,16.80
2023-05-21T01:43:21.525Z,16.80
2023-05-21T01:45:27.983Z,16.80
2023-05-21T01:47:33.087Z,16.80
2023-05-21T01:49:36.521Z,16.70
2023-05-21T01:51:40.116Z,16.70
2023-05-21T01:53:43.270Z,16.70
2023-05-21T01:55:47.211Z,16.70
2023-05-21T01:57:54.371Z,16.70
2023-05-21T01:59:58.727Z,16.70
2023-05-21T02:02:01.795Z,16.60
2023-05-21T02:04:05.061Z,16.60
2023-05-21T02:06:10.563Z,16.60
2023-05-21T02:08:16.340Z,16.60
2023-05-21T02:10:19.526Z,16.60
2023-05-21T02:12:24.351Z,16.60
2023-05-21T02:14:33.657Z,16.50
2023-05-21T02:16:38.574Z,16.60
2023-05-21T02:18:43.358Z,16.60
2023-05-21T02:20:46.305Z,16.50
2023-05-21T02:22:50.306Z,16.50
2023-05-21T02:24:55.195Z,16.50
2023-05-21T02:26:58.559Z,16.60
2023-05-21T02:29:01.722Z,16.50
2023-05-21T02:31:07.165Z,16.50
2023-05-21T02:33:15.418Z,16.60
2023-05-21T02:35:18.514Z,16.50
2023-05-21T02:37:21.862Z,16.50
2023-05-21T02:39:25.108Z,16.60
2023-05-21T02:41:28.350Z,16.50
2023-05-21T02:43:31.251Z,16.50
2023-05-21T02:45:34.521Z,16.50
2023-05-21T02:47:39.301Z,16.50
2023-05-21T02:49:45.987Z,16.50
2023-05-21T02:51:49.431Z,16.50
2023-05-21T02:53:55.326Z,16.50
2023-05-21T02:55:58.290Z,16.50
2023-05-21T02:58:01.508Z,16.50
2023-05-21T03:00:06.225Z,16.40
2023-05-21T03:02:10.024Z,16.40
2023-05-21T03:04:14.377Z,16.40
2023-05-21T03:06:18.603Z,16.40
2023-05-21T03:08:24.684Z,16.40
2023-05-21T03:10:30.579Z,16.40
2023-05-21T03:12:33.498Z,16.40
2023-05-21T03:14:36.533Z,16.40
2023-05-21T03:16:41.778Z,16.40
2023-05-21T03:18:47.927Z,16.40
2023-05-21T03:20:52.322Z,16.40
2023-05-21T03:22:55.874Z,16.40
2023-05-21T03:24:58.856Z,16.40
2023-05-21T03:27:06.243Z,16.40
2023-05-21T03:29:09.268Z,16.40
2023-05-21T03:31:12.530Z,16.40
2023-05-21T03:33:21.254Z,16.40
2023-05-21T03:35:24.995Z,16.40
2023-05-21T03:37:37.445Z,16.40
2023-05-21T03:39:41.833Z,16.40
2023-05-21T03:41:48.988Z,16.40
2023-05-21T03:43:59.118Z,16.40
2023-05-21T03:46:07.246Z,16.40
2023-05-21T03:48:26.749Z,16.40
2023-05-21T03:50:29.787Z,16.40
2023-05-21T03:52:34.265Z,16.40
2023-05-21T03:54:40.511Z,16.40
2023-05-21T03:56:47.401Z,16.40
2023-05-21T03:58:54.905Z,16.40
2023-05-21T04:01:00.474Z,16.40
2023-05-21T04:03:06.458Z,16.40
2023-05-21T04:05:10.354Z,16.40
2023-05-21T04:07:19.100Z,16.40
2023-05-21T04:09:23.578Z,16.40
2023-05-21T04:11:28.337Z,16.50
2023-05-21T04:13:34.124Z,16.40
2023-05-21T04:15:41.245Z,16.40
2023-05-21T04:17:45.380Z,16.40
2023-05-21T04:19:50.660Z,16.40
2023-05-21T04:21:53.624Z,16.40
2023-05-21T04:23:57.668Z,16.40
2023-05-21T04:26:16.254Z,16.30
2023-05-21T04:28:21.195Z,16.40
2023-05-21T04:30:25.127Z,16.40
2023-05-21T04:32:28.548Z,16.30
2023-05-21T04:34:33.827Z,16.40
2023-05-21T04:36:36.826Z,16.40
2023-05-21T04:38:41.765Z,16.40
2023-05-21T04:40:50.721Z,16.40
2023-05-21T04:42:55.417Z,16.40
2023-05-21T04:45:03.237Z,16.40
2023-05-21T04:47:10.413Z,16.40
2023-05-21T04:49:22.806Z,16.40
2023-05-21T04:51:29.965Z,16.40
2023-05-21T04:53:33.912Z,16.40
2023-05-21T04:55:40.193Z,16.40
2023-05-21T04:57:45.826Z,16.40
2023-05-21T04:59:52.786Z,16.40
2023-05-21T05:01:55.765Z,16.40
2023-05-21T05:04:01.936Z,16.40
2023-05-21T05:06:05.524Z,16.40
2023-05-21T05:08:08.700Z,16.40
2023-05-21T05:10:11.799Z,16.40
2023-05-21T05:12:15.003Z,16.40
2023-05-21T05:14:20.359Z,16.40
2023-05-21T05:16:26.083Z,16.40
2023-05-21T05:18:31.991Z,16.40
2023-05-21T05:20:35.206Z,16.40
2023-05-21T05:22:41.207Z,16.40
2023-05-21T05:24:44.259Z,16.50
2023-05-21T05:26:47.462Z,16.50
2023-05-21T05:28:50.699Z,16.50
2023-05-21T05:30:54.810Z,16.50
2023-05-21T05:33:02.315Z,16.50
2023-05-21T05:35:09.455Z,16.50
2023-05-21T05:37:14.307Z,16.50
2023-05-21T05:39:18.671Z,16.50
2023-05-21T05:41:27.133Z,16.50
2023-05-21T05:43:35.149Z,16.60
2023-05-21T05:45:42.714Z,16.60
2023-05-21T05:47:57.150Z,16.60
2023-05-21T05:50:07.469Z,16.60
2023-05-21T05:52:10.821Z,16.60
2023-05-21T05:54:19.433Z,16.60
2023-05-21T05:56:24.954Z,16.70
2023-05-21T05:58:27.939Z,16.70
2023-05-21T06:00:43.166Z,16.70
2023-05-21T06:02:46.277Z,16.70
2023-05-21T06:04:49.224Z,16.70
2023-05-21T06:06:54.437Z,16.80
2023-05-21T06:08:57.437Z,16.80
2023-05-21T06:11:03.055Z,16.80
2023-05-21T06:13:06.089Z,16.80
2023-05-21T06:15:11.246Z,16.80
2023-05-21T06:17:16.192Z,16.90
2023-05-21T06:19:21.288Z,16.90
2023-05-21T06:21:24.389Z,16.90
2023-05-21T06:23:29.044Z,17.00
2023-05-21T06:25:32.385Z,17.00
2023-05-21T06:27:37.529Z,17.00
2023-05-21T06:29:44.608Z,17.00
2023-05-21T06:31:48.794Z,17.10
2023-05-21T06:33:51.909Z,17.10
2023-05-21T06:35:56.986Z,17.10
2023-05-21T06:38:00.202Z,17.20
2023-05-21T06:40:05.299Z,17.10
2023-05-21T06:42:08.684Z,17.10
2023-05-21T06:44:23.915Z,17.20
2023-05-21T06:46:43.606Z,17.20
2023-05-21T06:48:49.772Z,17.30
2023-05-21T06:50:55.538Z,17.30
2023-05-21T06:52:58.475Z,17.30
2023-05-21T06:55:01.398Z,17.40
2023-05-21T06:57:12.572Z,17.40
2023-05-21T06:59:22.583Z,17.40
2023-05-21T07:01:25.638Z,17.50
2023-05-21T07:03:29.080Z,17.50
2023-05-21T07:05:32.470Z,17.50
2023-05-21T07:07:38.479Z,17.50
2023-05-21T07:09:41.626Z,17.60
2023-05-21T07:11:45.186Z,17.60
2023-05-21T07:13:53.612Z,17.60
2023-05-21T07:15:56.637Z,17.70
2023-05-21T07:18:01.341Z,17.60
2023-05-21T07:20:06.476Z,17.70
2023-05-21T07:22:09.516Z,17.80
2023-05-21T07:24:15.772Z,17.80
2023-05-21T07:26:18.870Z,18.00
2023-05-21T07:28:21.934Z,18.00
2023-05-21T07:30:26.567Z,18.10
2023-05-21T07:32:30.437Z,18.20
2023-05-21T07:34:36.375Z,18.30
2023-05-21T07:36:47.746Z,18.40
2023-05-21T07:38:51.224Z,18.50
2023-05-21T07:40:57.106Z,18.60
2023-05-21T07:43:02.697Z,18.70
2023-05-21T07:45:08.669Z,18.70
2023-05-21T07:47:17.904Z,18.90
2023-05-21T07:49:24.392Z,19.00
2023-05-21T07:51:28.449Z,19.00
2023-05-21T07:53:34.394Z,19.10
2023-05-21T07:55:47.437Z,19.20
2023-05-21T07:57:54.142Z,19.30
2023-05-21T08:00:02.752Z,19.50
2023-05-21T08:02:09.422Z,19.50
2023-05-21T08:04:22.928Z,19.70
2023-05-21T08:06:26.873Z,19.80
2023-05-21T08:08:31.681Z,19.80
2023-05-21T08:10:37.071Z,19.90
2023-05-21T08:12:40.145Z,20.00
2023-05-21T08:14:44.003Z,20.10
2023-05-21T08:16:50.488Z,20.20
2023-05-21T08:18:53.672Z,20.20
2023-05-21T08:20:58.637Z,20.30
2023-05-21T08:23:01.894Z,20.40
2023-05-21T08:25:12.566Z,20.50
2023-05-21T08:27:16.226Z,20.50
2023-05-21T08:29:19.321Z,20.50
2023-05-21T08:31:22.803Z,20.60
2023-05-21T08:33:34.079Z,20.60
2023-05-21T08:35:37.474Z,20.70
2023-05-21T08:38:05.216Z,20.80
2023-05-21T08:40:21.414Z,20.80
2023-05-21T08:42:37.278Z,20.90
2023-05-21T08:44:49.653Z,21.00
2023-05-21T08:46:52.962Z,21.10
2023-05-21T08:48:56.973Z,21.10
2023-05-21T08:51:01.885Z,21.20
2023-05-21T08:53:23.906Z,21.30
2023-05-21T08:55:33.413Z,21.40
2023-05-21T08:57:37.188Z,21.40
2023-05-21T08:59:44.190Z,21.50
2023-05-21T09:01:57.496Z,21.60
2023-05-21T09:04:20.095Z,21.70
2023-05-21T09:06:33.955Z,21.70
2023-05-21T09:08:44.712Z,21.80
2023-05-21T09:11:10.997Z,21.80
2023-05-21T09:13:22.549Z,21.90
2023-05-21T09:15:29.556Z,21.90
2023-05-21T09:17:32.843Z,21.90
2023-05-21T09:20:16.784Z,22.00
2023-05-21T09:22:31.074Z,22.10
2023-05-21T09:24:44.289Z,22.10
2023-05-21T09:26:47.296Z,22.20
2023-05-21T09:28:50.540Z,22.20
2023-05-21T09:31:04.162Z,22.30
2023-05-21T09:33:08.197Z,22.40
2023-05-21T09:35:13.225Z,22.50
2023-05-21T09:37:27.153Z,22.50
2023-05-21T09:39:36.108Z,22.60
2023-05-21T09:41:46.857Z,22.70
2023-05-21T09:43:52.270Z,22.80
2023-05-21T09:46:01.272Z,22.90
2023-05-21T09:48:07.389Z,22.90
2023-05-21T09:50:14.155Z,23.00
2023-05-21T09:52:25.288Z,23.10
2023-05-21T09:54:33.659Z,23.20
2023-05-21T09:56:36.861Z,23.30
2023-05-21T09:58:41.329Z,23.40
2023-05-21T10:00:44.365Z,23.50
2023-05-21T10:02:50.012Z,23.50
2023-05-21T10:04:54.317Z,23.60
2023-05-21T10:06:59.286Z,23.70
2023-05-21T10:09:07.250Z,23.80
2023-05-21T10:11:11.106Z,23.80
2023-05-21T10:13:19.168Z,23.80
2023-05-21T10:15:28.192Z,23.90
2023-05-21T10:17:32.099Z,23.90
2023-05-21T10:19:36.380Z,24.00
2023-05-21T10:21:40.866Z,24.10
2023-05-21T10:23:46.041Z,24.20
2023-05-21T10:25:52.917Z,24.20
2023-05-21T10:27:56.899Z,24.30
2023-05-21T10:30:00.867Z,24.40
2023-05-21T10:32:06.660Z,24.40
2023-05-21T10:34:11.300Z,24.50
2023-05-21T10:36:17.846Z,24.50
2023-05-21T10:38:24.544Z,24.60
2023-05-21T10:40:27.444Z,24.60
2023-05-21T10:43:03.425Z,24.70
2023-05-21T10:45:24.564Z,24.80
2023-05-21T10:47:57.513Z,25.00
2023-05-21T10:50:35.388Z,25.00
2023-05-21T10:52:53.257Z,25.10
2023-05-21T10:55:08.261Z,25.10
2023-05-21T10:57:22.047Z,25.10
2023-05-21T10:59:41.047Z,25.20
2023-05-21T11:01:45.188Z,25.20
2023-05-21T11:03:50.508Z,25.30
2023-05-21T11:05:55.795Z,25.40
2023-05-21T11:08:01.595Z,25.50
2023-05-21T11:10:33.780Z,25.60
2023-05-21T11:13:08.717Z,25.70
2023-05-21T11:15:17.155Z,25.80
2023-05-21T11:17:38.389Z,25.90
2023-05-21T11:19:43.857Z,26.00
2023-05-21T11:21:52.155Z,26.10
2023-05-21T11:23:56.576Z,26.20
2023-05-21T11:26:02.521Z,26.30
2023-05-21T11:28:09.312Z,26.40
2023-05-21T11:30:19.852Z,26.50
2023-05-21T11:32:25.185Z,26.60
2023-05-21T11:34:29.137Z,26.80
2023-05-21T11:36:36.221Z,26.90
2023-05-21T11:38:40.783Z,26.90
2023-05-21T11:40:54.602Z,27.00
2023-05-21T11:42:59.989Z,27.00
2023-05-21T11:45:05.767Z,27.00
2023-05-21T11:47:10.376Z,27.00
2023-05-21T11:49:15.461Z,27.00
2023-05-21T11:51:18.769Z,27.00
2023-05-21T11:53:23.235Z,27.00
2023-05-21T11:55:26.785Z,27.10
2023-05-21T11:57:31.811Z,27.10
2023-05-21T11:59:35.085Z,27.20
2023-05-21T12:01:39.293Z,27.30
2023-05-21T12:03:44.599Z,27.40
2023-05-21T12:05:50.734Z,27.40
2023-05-21T12:07:54.767Z,27.50
2023-05-21T12:10:01.331Z,27.60
2023-05-21T12:12:05.834Z,27.70
2023-05-21T12:14:15.138Z,27.80
2023-05-21T12:16:18.396Z,27.80
2023-05-21T12:18:22.195Z,27.90
2023-05-21T12:20:31.138Z,27.90
2023-05-21T12:22:34.075Z,27.90
2023-05-21T12:24:40.558Z,28.00
2023-05-21T12:26:47.987Z,28.00
2023-05-21T12:28:51.141Z,28.00
2023-05-21T12:30:54.488Z,27.90
2023-05-21T12:33:03.096Z,28.00
2023-05-21T12:35:06.943Z,28.00
2023-05-21T12:37:10.181Z,28.00
2023-05-21T12:39:13.339Z,28.10
2023-05-21T12:41:17.213Z,28.10
2023-05-21T12:43:27.033Z,28.10
2023-05-21T12:45:31.940Z,28.10
2023-05-21T12:47:35.581Z,28.20
2023-05-21T12:49:42.627Z,28.20
2023-05-21T12:51:46.682Z,28.20
2023-05-21T12:53:49.650Z,28.30
2023-05-21T12:55:56.253Z,28.30
2023-05-21T12:58:08.159Z,28.30
2023-05-21T13:00:14.297Z,28.30
2023-05-21T13:02:19.670Z,28.30
2023-05-21T13:04:24.672Z,28.40
2023-05-21T13:06:27.761Z,28.40
2023-05-21T13:08:34.381Z,28.40
2023-05-21T13:10:38.916Z,28.50
2023-05-21T13:12:44.108Z,28.60
2023-05-21T13:14:50.299Z,28.60
2023-05-21T13:16:54.747Z,28.70
2023-05-21T13:18:57.927Z,28.80
2023-05-21T13:21:00.927Z,28.80
2023-05-21T13:23:06.246Z,28.80
2023-05-21T13:25:11.062Z,28.90
2023-05-21T13:27:15.935Z,28.90
2023-05-21T13:29:18.890Z,28.90
2023-05-21T13:31:34.952Z,29.00
2023-05-21T13:33:43.126Z,29.00
2023-05-21T13:35:51.076Z,29.10
2023-05-21T13:37:57.441Z,29.10
2023-05-21T13:40:00.853Z,29.20
2023-05-21T13:42:05.796Z,29.30
2023-05-21T13:44:08.769Z,29.30
2023-05-21T13:46:11.951Z,29.40
2023-05-21T13:48:15.075Z,29.50
2023-05-21T13:50:20.681Z,29.50
2023-05-21T13:52:23.617Z,29.60
2023-05-21T13:54:26.689Z,29.60
2023-05-21T13:56:33.853Z,29.60
2023-05-21T13:58:39.964Z,29.60
2023-05-21T14:00:43.027Z,29.60
2023-05-21T14:02:47.614Z,29.60
2023-05-21T14:04:50.838Z,29.60
2023-05-21T14:06:55.540Z,29.60
2023-05-21T14:08:58.619Z,29.60
2023-05-21T14:11:05.382Z,29.60
2023-05-21T14:13:18.993Z,29.60
2023-05-21T14:15:24.365Z,29.60
2023-05-21T14:17:27.371Z,29.60
2023-05-21T14:19:33.164Z,29.60
2023-05-21T14:21:36.252Z,29.60
2023-05-21T14:23:48.302Z,29.50
2023-05-21T14:25:51.260Z,29.50
2023-05-21T14:27:54.215Z,29.40
2023-05-21T14:30:00.160Z,29.40
2023-05-21T14:32:03.154Z,29.30
2023-05-21T14:34:06.939Z,29.30
2023-05-21T14:36:09.883Z,29.20
2023-05-21T14:38:14.984Z,29.20
2023-05-21T14:40:22.099Z,29.20
2023-05-21T14:42:27.745Z,29.20
2023-05-21T14:44:34.179Z,29.20
2023-05-21T14:46:37.566Z,29.10
2023-05-21T14:48:46.629Z,29.10
2023-05-21T14:50:49.985Z,29.10
2023-05-21T14:52:57.223Z,29.00
2023-05-21T14:55:00.398Z,28.90
2023-05-21T14:57:05.268Z,28.90
2023-05-21T14:59:08.429Z,28.80
2023-05-21T15:01:15.128Z,28.70
2023-05-21T15:03:18.225Z,28.60
2023-05-21T15:05:21.631Z,28.60
2023-05-21T15:07:24.602Z,28.50
2023-05-21T15:09:27.546Z,28.40
2023-05-21T15:11:33.721Z,28.40
2023-05-21T15:13:46.377Z,28.40
2023-05-21T15:15:49.919Z,28.40
2023-05-21T15:17:52.974Z,28.30
2023-05-21T15:19:58.651Z,28.30
2023-05-21T15:22:02.811Z,28.40
2023-05-21T15:24:06.724Z,28.30
2023-05-21T15:26:10.703Z,28.40
2023-05-21T15:28:18.141Z,28.40
2023-05-21T15:30:31.918Z,28.50
2023-05-21T15:32:35.498Z,28.60
2023-05-21T15:34:43.149Z,28.60
2023-05-21T15:37:08.576Z,28.70
2023-05-21T15:39:18.495Z,28.70
2023-05-21T15:41:24.163Z,28.70
2023-05-21T15:43:30.710Z,28.70
2023-05-21T15:45:39.471Z,28.80
2023-05-21T15:47:44.728Z,28.80
2023-05-21T15:49:49.731Z,28.80
2023-05-21T15:52:09.394Z,28.70
2023-05-21T15:54:15.718Z,28.70
2023-05-21T15:56:18.696Z,28.60
2023-05-21T15:58:21.779Z,28.60
2023-05-21T16:00:24.791Z,28.50
2023-05-21T16:02:29.092Z,28.50
2023-05-21T16:04:36.388Z,28.50
2023-05-21T16:06:39.297Z,28.50
2023-05-21T16:08:44.207Z,28.50
2023-05-21T16:10:47.470Z,28.40
2023-05-21T16:12:55.858Z,28.40
2023-05-21T16:14:58.759Z,28.40
2023-05-21T16:17:01.706Z,28.30
2023-05-21T16:19:06.031Z,28.30
2023-05-21T16:21:14.525Z,28.20
2023-05-21T16:23:17.576Z,28.10
2023-05-21T16:25:20.807Z,28.10
2023-05-21T16:27:25.834Z,28.00
2023-05-21T16:29:29.701Z,27.90
2023-05-21T16:31:34.910Z,27.90
2023-05-21T16:33:38.037Z,27.80
2023-05-21T16:35:42.293Z,27.70
2023-05-21T16:37:47.719Z,27.60
2023-05-21T16:39:53.464Z,27.60
2023-05-21T16:41:59.786Z,27.50
2023-05-21T16:44:02.956Z,27.50
2023-05-21T16:46:10.475Z,27.40
2023-05-21T16:48:16.300Z,27.30
2023-05-21T16:50:20.636Z,27.30
2023-05-21T16:52:27.479Z,27.20
2023-05-21T16:54:33.143Z,27.20
2023-05-21T16:56:36.315Z,27.10
2023-05-21T16:58:42.469Z,27.10
2023-05-21T17:00:49.059Z,27.00
2023-05-21T17:03:04.064Z,27.00
2023-05-21T17:05:10.927Z,27.00
2023-05-21T17:07:14.178Z,26.90
2023-05-21T17:09:24.263Z,26.90
2023-05-21T17:11:27.257Z,26.80
2023-05-21T17:13:30.199Z,26.70
2023-05-21T17:15:36.683Z,26.60
2023-05-21T17:17:39.863Z,26.60
2023-05-21T17:19:44.759Z,26.50
2023-05-21T17:21:47.783Z,26.40
2023-05-21T17:23:50.764Z,26.40
2023-05-21T17:25:55.164Z,26.40
2023-05-21T17:28:00.944Z,26.40
2023-05-21T17:30:05.266Z,26.40
2023-05-21T17:32:08.623Z,26.30
2023-05-21T17:34:11.865Z,26.30
2023-05-21T17:36:19.230Z,26.20
2023-05-21T17:38:24.194Z,26.20
2023-05-21T17:40:27.204Z,26.20
2023-05-21T17:42:33.608Z,26.20
2023-05-21T17:44:36.500Z,26.20
2023-05-21T17:46:42.356Z,26.10
2023-05-21T17:48:45.498Z,26.10
2023-05-21T17:50:48.659Z,26.10
2023-05-21T17:52:51.578Z,26.00
2023-05-21T17:54:54.555Z,26.00
2023-05-21T17:56:59.108Z,25.90
2023-05-21T17:59:03.390Z,25.90
2023-05-21T18:01:06.579Z,25.90
2023-05-21T18:03:11.056Z,25.90
2023-05-21T18:05:14.034Z,25.90
2023-05-21T18:07:17.410Z,25.80
2023-05-21T18:09:20.433Z,25.80
2023-05-21T18:11:26.159Z,25.80
2023-05-21T18:13:29.778Z,25.80
2023-05-21T18:15:34.359Z,25.70
2023-05-21T18:17:37.440Z,25.70
2023-05-21T18:19:40.600Z,25.70
2023-05-21T18:21:43.543Z,25.70
2023-05-21T18:23:47.696Z,25.60
2023-05-21T18:25:50.846Z,25.60
2023-05-21T18:27:53.751Z,25.60
2023-05-21T18:29:56.868Z,25.60
2023-05-21T18:32:03.305Z,25.50
2023-05-21T18:34:06.327Z,25.50
2023-05-21T18:36:09.425Z,25.40
2023-05-21T18:38:14.149Z,25.40
2023-05-21T18:40:17.453Z,25.40
2023-05-21T18:42:22.272Z,25.40
2023-05-21T18:44:25.260Z,25.30
2023-05-21T18:46:28.349Z,25.30
2023-05-21T18:48:32.930Z,25.20
2023-05-21T18:50:38.344Z,25.20
2023-05-21T18:52:41.378Z,25.20
2023-05-21T18:54:46.449Z,25.10
2023-05-21T18:56:49.359Z,25.10
2023-05-21T18:58:52.274Z,25.10
2023-05-21T19:00:55.399Z,25.00
2023-05-21T19:02:58.395Z,25.00
2023-05-21T19:05:02.885Z,25.00
2023-05-21T19:07:06.247Z,24.90
2023-05-21T19:09:11.482Z,24.90
2023-05-21T19:11:19.338Z,24.90
2023-05-21T19:13:22.300Z,25.00
2023-05-21T19:15:25.203Z,24.80
2023-05-21T19:17:28.301Z,24.80
2023-05-21T19:19:31.397Z,24.70
2023-05-21T19:21:38.857Z,24.70
2023-05-21T19:23:51.983Z,24.60
2023-05-21T19:25:56.445Z,24.60
2023-05-21T19:28:02.170Z,24.60
2023-05-21T19:30:08.973Z,24.60
2023-05-21T19:32:15.760Z,24.50
2023-05-21T19:34:18.777Z,24.40
2023-05-21T19:36:22.437Z,24.40
2023-05-21T19:38:28.098Z,24.40
2023-05-21T19:40:39.770Z,24.30
2023-05-21T19:42:44.726Z,24.30
2023-05-21T19:44:47.689Z,24.20
2023-05-21T19:46:56.372Z,24.20
2023-05-21T19:48:59.321Z,24.10
2023-05-21T19:51:02.805Z,24.10
2023-05-21T19:53:05.876Z,24.00
2023-05-21T19:55:10.775Z,24.00
2023-05-21T19:57:14.307Z,23.90
2023-05-21T19:59:19.913Z,23.90
2023-05-21T20:01:23.383Z,23.90
2023-05-21T20:03:28.595Z,23.80
2023-05-21T20:05:31.573Z,23.80
2023-05-21T20:07:34.510Z,23.70
2023-05-21T20:09:37.489Z,23.70
2023-05-21T20:11:43.087Z,23.60
2023-05-21T20:13:50.102Z,23.60
2023-05-21T20:15:53.102Z,23.60
2023-05-21T20:17:59.014Z,23.50
2023-05-21T20:20:06.505Z,23.50
2023-05-21T20:22:09.616Z,23.40
2023-05-21T20:24:12.612Z,23.40
2023-05-21T20:26:18.723Z,23.40
2023-05-21T20:28:23.287Z,23.30
2023-05-21T20:30:32.914Z,23.30
2023-05-21T20:32:35.962Z,23.20
2023-05-21T20:34:54.443Z,23.20
2023-05-21T20:37:04.210Z,23.10
2023-05-21T20:39:08.953Z,23.10
2023-05-21T20:41:15.555Z,23.10
2023-05-21T20:43:20.345Z,23.00
2023-05-21T20:45:33.581Z,23.00
2023-05-21T20:47:39.422Z,22.90
2023-05-21T20:49:44.220Z,22.90
2023-05-21T20:51:47.660Z,22.80
2023-05-21T20:53:52.861Z,22.80
2023-05-21T20:55:55.935Z,22.70
2023-05-21T20:57:59.035Z,22.60
2023-05-21T21:00:04.589Z,22.60
2023-05-21T21:02:13.051Z,22.50
2023-05-21T21:04:16.117Z,22.50
2023-05-21T21:06:19.966Z,22.40
2023-05-21T21:08:23.043Z,22.30
2023-05-21T21:10:32.190Z,22.30
2023-05-21T21:12:35.970Z,22.20
2023-05-21T21:14:38.949Z,22.20
2023-05-21T21:16:51.736Z,22.10
2023-05-21T21:19:07.553Z,22.10
2023-05-21T21:21:12.022Z,22.10
2023-05-21T21:23:21.179Z,22.00
2023-05-21T21:25:25.682Z,22.00
2023-05-21T21:27:31.192Z,21.90
2023-05-21T21:29:44.793Z,21.90
2023-05-21T21:31:48.072Z,21.90
2023-05-21T21:33:53.285Z,21.80
2023-05-21T21:36:04.197Z,21.80
2023-05-21T21:38:08.614Z,21.80
2023-05-21T21:40:12.907Z,21.80
2023-05-21T21:42:19.238Z,21.80
2023-05-21T21:44:23.981Z,21.70
2023-05-21T21:46:31.067Z,21.70
2023-05-21T21:48:39.256Z,21.70
2023-05-21T21:50:44.235Z,21.60
2023-05-21T21:52:49.093Z,21.60
2023-05-21T21:54:54.182Z,21.60
2023-05-21T21:56:57.277Z,21.60
2023-05-21T21:59:00.868Z,21.60
2023-05-21T22:01:08.274Z,21.60
2023-05-21T22:03:12.987Z,21.50
2023-05-21T22:05:17.431Z,21.50
2023-05-21T22:07:26.469Z,21.50
2023-05-21T22:09:32.601Z,21.50
2023-05-21T22:11:36.376Z,21.50
2023-05-21T22:13:41.622Z,21.50
2023-05-21T22:15:46.507Z,21.40
2023-05-21T22:17:51.823Z,21.40
2023-05-21T22:20:01.261Z,21.40
2023-05-21T22:22:07.609Z,21.40
2023-05-21T22:24:20.604Z,21.40
2023-05-21T22:26:39.789Z,21.30
2023-05-21T22:28:43.070Z,21.30
2023-05-21T22:30:52.025Z,21.30
2023-05-21T22:32:58.120Z,21.30
2023-05-21T22:35:04.482Z,21.30
2023-05-21T22:37:11.162Z,21.20
2023-05-21T22:39:14.275Z,21.20
2023-05-21T22:41:17.735Z,21.20
2023-05-21T22:43:24.713Z,21.20
2023-05-21T22:45:28.478Z,21.10
2023-05-21T22:47:41.929Z,21.10
2023-05-21T22:49:45.497Z,21.10
2023-05-21T22:51:56.069Z,21.00
2023-05-21T22:53:59.149Z,21.00
2023-05-21T22:56:05.636Z,20.90
2023-05-21T22:58:10.072Z,20.90
2023-05-21T23:00:18.989Z,20.80
2023-05-21T23:02:22.298Z,20.80
2023-05-21T23:04:35.803Z,20.80
2023-05-21T23:06:49.101Z,20.70
2023-05-21T23:08:53.367Z,20.70
2023-05-21T23:10:56.419Z,20.70
2023-05-21T23:13:04.038Z,20.60
2023-05-21T23:15:10.941Z,20.60
2023-05-21T23:17:15.347Z,20.60
2023-05-21T23:19:21.128Z,20.60
2023-05-21T23:21:28.120Z,20.60
2023-05-21T23:23:32.464Z,20.50
2023-05-21T23:25:42.493Z,20.50
2023-05-21T23:27:45.461Z,20.50
2023-05-21T23:29:48.584Z,20.50
2023-05-21T23:31:54.983Z,20.50
2023-05-21T23:34:06.110Z,20.50
2023-05-21T23:36:11.192Z,20.50
2023-05-21T23:38:14.498Z,20.50
2023-05-21T23:40:17.529Z,20.50
2023-05-21T23:42:21.277Z,20.50
2023-05-21T23:44:25.708Z,20.50
2023-05-21T23:46:30.601Z,20.50
2023-05-21T23:48:36.047Z,20.50
2023-05-21T23:50:40.601Z,20.50
2023-05-21T23:52:43.778Z,20.40
2023-05-21T23:54:48.995Z,20.40
2023-05-21T23:56:51.953Z,20.40
2023-05-21T23:58:54.863Z,20.40
